createdAt,value
2019-01-31T00:00:04.476Z,4.50
2019-01-31T00:01:04.707Z,4.10
2019-01-31T00:02:04.917Z,4.20
2019-01-31T00:03:05.132Z,4.20
2019-01-31T00:04:05.352Z,3.90
2019-01-31T00:05:05.567Z,4.30
2019-01-31T00:06:05.789Z,4.20
2019-01-31T00:07:06.008Z,4.10
2019-01-31T00:08:06.225Z,4.20
2019-01-31T00:09:06.448Z,4.10
2019-01-31T00:10:06.669Z,4.10
2019-01-31T00:11:06.892Z,3.80
2019-01-31T00:12:07.108Z,4.00
2019-01-31T00:13:07.327Z,3.90
2019-01-31T00:14:07.550Z,4.20
2019-01-31T00:15:07.771Z,4.10
2019-01-31T00:16:07.985Z,4.00
2019-01-31T00:17:08.210Z,4.30
2019-01-31T00:18:08.423Z,3.90
2019-01-31T00:19:08.646Z,3.90
2019-01-31T00:20:08.857Z,3.60
2019-01-31T00:21:09.083Z,4.30
2019-01-31T00:22:09.299Z,4.00
2019-01-31T00:23:09.522Z,3.90
2019-01-31T00:24:09.744Z,3.90
2019-01-31T00:25:09.962Z,4.10
2019-01-31T00:26:10.181Z,4.20
2019-01-31T00:27:10.400Z,3.60
2019-01-31T00:28:10.733Z,3.80
2019-01-31T00:29:10.843Z,4.20
2019-01-31T00:30:11.055Z,3.90
2019-01-31T00:31:11.278Z,3.90
2019-01-31T00:32:11.496Z,3.50
2019-01-31T00:33:11.721Z,3.80
2019-01-31T00:34:11.938Z,4.10
2019-01-31T00:35:12.158Z,3.70
2019-01-31T00:36:12.373Z,3.80
2019-01-31T00:37:12.592Z,3.60
2019-01-31T00:38:12.815Z,3.70
2019-01-31T00:39:13.032Z,3.80
2019-01-31T00:40:13.249Z,3.70
2019-01-31T00:41:13.469Z,3.60
2019-01-31T00:42:13.794Z,3.70
2019-01-31T00:43:13.908Z,3.50
2019-01-31T00:44:14.135Z,3.80
2019-01-31T00:45:14.337Z,4.00
2019-01-31T00:46:14.555Z,4.00
2019-01-31T00:47:14.772Z,4.10
2019-01-31T00:48:14.991Z,4.10
2019-01-31T00:49:15.214Z,4.70
2019-01-31T00:50:15.430Z,4.30
2019-01-31T00:51:15.655Z,4.00
2019-01-31T00:52:15.873Z,4.40
2019-01-31T00:53:16.094Z,4.50
2019-01-31T00:54:16.315Z,4.30
2019-01-31T00:55:16.535Z,4.30
2019-01-31T00:56:16.754Z,4.60
2019-01-31T00:57:16.978Z,4.60
2019-01-31T00:58:17.188Z,4.60
2019-01-31T00:59:17.405Z,4.60
2019-01-31T01:00:17.626Z,4.60
2019-01-31T01:01:17.843Z,4.90
2019-01-31T01:02:18.065Z,4.30
2019-01-31T01:03:18.287Z,4.20
2019-01-31T01:04:18.501Z,4.60
2019-01-31T01:05:18.717Z,4.80
2019-01-31T01:06:18.942Z,4.20
2019-01-31T01:07:19.162Z,4.60
2019-01-31T01:08:19.383Z,4.50
2019-01-31T01:09:19.603Z,4.70
2019-01-31T01:10:19.823Z,4.30
2019-01-31T01:11:20.042Z,4.30
2019-01-31T01:12:20.261Z,3.80
2019-01-31T01:13:20.481Z,3.50
2019-01-31T01:14:20.703Z,3.80
2019-01-31T01:15:20.920Z,3.90
2019-01-31T01:16:21.140Z,3.90
2019-01-31T01:17:21.358Z,4.30
2019-01-31T01:18:21.576Z,3.80
2019-01-31T01:19:21.796Z,4.20
2019-01-31T01:20:22.016Z,3.90
2019-01-31T01:21:22.239Z,4.00
2019-01-31T01:22:22.458Z,3.60
2019-01-31T01:23:22.674Z,3.80
2019-01-31T01:24:22.893Z,3.80
2019-01-31T01:25:23.110Z,4.30
2019-01-31T01:26:23.330Z,3.30
2019-01-31T01:27:23.553Z,3.40
2019-01-31T01:28:23.769Z,3.50
2019-01-31T01:29:23.989Z,3.90
2019-01-31T01:30:24.208Z,3.80
2019-01-31T01:31:24.428Z,4.10
2019-01-31T01:32:24.652Z,3.70
2019-01-31T01:33:24.873Z,3.60
2019-01-31T01:34:25.085Z,3.40
2019-01-31T01:35:25.306Z,3.80
2019-01-31T01:36:25.524Z,3.80
2019-01-31T01:37:25.748Z,3.70
2019-01-31T01:38:25.960Z,3.40
2019-01-31T01:39:26.179Z,4.00
2019-01-31T01:40:26.402Z,3.70
2019-01-31T01:41:26.620Z,3.40
2019-01-31T01:42:26.838Z,3.60
2019-01-31T01:43:27.057Z,3.60
2019-01-31T01:44:27.278Z,3.80
2019-01-31T01:45:27.497Z,3.40
2019-01-31T01:46:27.717Z,3.50
2019-01-31T01:47:27.935Z,3.70
2019-01-31T01:48:28.153Z,3.60
2019-01-31T01:49:28.379Z,3.70
2019-01-31T01:50:28.592Z,3.90
2019-01-31T01:51:28.810Z,3.50
2019-01-31T01:52:29.029Z,3.40
2019-01-31T01:53:29.248Z,3.70
2019-01-31T01:54:29.474Z,3.40
2019-01-31T01:55:29.695Z,3.80
2019-01-31T01:56:29.914Z,3.50
2019-01-31T01:57:30.138Z,3.70
2019-01-31T01:58:30.359Z,3.50
2019-01-31T01:59:30.580Z,4.10
2019-01-31T02:00:30.800Z,4.20
2019-01-31T02:01:31.022Z,3.60
2019-01-31T02:02:31.245Z,3.60
2019-01-31T02:03:31.462Z,3.90
2019-01-31T02:04:31.676Z,3.50
2019-01-31T02:05:31.907Z,3.70
2019-01-31T02:06:32.118Z,4.20
2019-01-31T02:07:32.335Z,4.10
2019-01-31T02:08:32.559Z,3.80
2019-01-31T02:09:32.775Z,3.90
2019-01-31T02:10:32.998Z,3.90
2019-01-31T02:11:33.209Z,3.60
2019-01-31T02:12:33.427Z,3.50
2019-01-31T02:13:33.651Z,4.10
2019-01-31T02:14:33.867Z,3.50
2019-01-31T02:15:34.086Z,4.00
2019-01-31T02:16:34.310Z,4.00
2019-01-31T02:17:34.522Z,3.90
2019-01-31T02:18:34.740Z,3.80
2019-01-31T02:19:34.963Z,3.70
2019-01-31T02:20:35.177Z,3.60
2019-01-31T02:21:35.400Z,4.30
2019-01-31T02:22:35.618Z,4.00
2019-01-31T02:23:35.837Z,3.60
2019-01-31T02:24:36.056Z,4.10
2019-01-31T02:25:36.278Z,3.20
2019-01-31T02:26:36.497Z,3.60
2019-01-31T02:27:36.714Z,4.00
2019-01-31T02:28:36.934Z,3.50
2019-01-31T02:29:37.154Z,3.70
2019-01-31T02:30:37.376Z,4.20
2019-01-31T02:31:37.592Z,3.70
2019-01-31T02:32:37.811Z,3.60
2019-01-31T02:33:38.030Z,4.30
2019-01-31T02:34:38.249Z,3.60
2019-01-31T02:35:38.588Z,3.60
2019-01-31T02:36:38.692Z,3.50
2019-01-31T02:37:38.906Z,4.10
2019-01-31T02:38:39.128Z,4.00
2019-01-31T02:39:43.223Z,3.70
2019-01-31T02:40:39.568Z,4.10
2019-01-31T02:41:39.789Z,3.90
2019-01-31T02:42:40.009Z,3.60
2019-01-31T02:43:40.228Z,3.60
2019-01-31T02:44:40.446Z,3.80
2019-01-31T02:45:40.673Z,3.50
2019-01-31T02:46:40.892Z,3.60
2019-01-31T02:47:41.114Z,4.90
2019-01-31T02:48:41.335Z,4.10
2019-01-31T02:49:41.555Z,4.30
2019-01-31T02:50:41.773Z,4.30
2019-01-31T02:51:41.993Z,3.80
2019-01-31T02:52:42.218Z,3.90
2019-01-31T02:53:42.435Z,4.40
2019-01-31T02:54:42.656Z,3.50
2019-01-31T02:55:42.870Z,3.80
2019-01-31T02:56:43.089Z,3.90
2019-01-31T02:57:43.316Z,3.70
2019-01-31T02:58:43.535Z,3.90
2019-01-31T02:59:43.759Z,4.40
2019-01-31T03:00:43.978Z,4.10
2019-01-31T03:01:44.193Z,4.50
2019-01-31T03:02:44.410Z,3.90
2019-01-31T03:03:44.629Z,3.60
2019-01-31T03:04:44.850Z,3.90
2019-01-31T03:05:45.081Z,4.00
2019-01-31T03:06:45.289Z,4.20
2019-01-31T03:07:45.508Z,4.10
2019-01-31T03:08:45.854Z,3.80
2019-01-31T03:09:54.566Z,4.30
2019-01-31T03:10:46.160Z,3.70
2019-01-31T03:11:46.378Z,4.20
2019-01-31T03:12:46.603Z,4.20
2019-01-31T03:13:46.814Z,3.90
2019-01-31T03:14:47.034Z,3.80
2019-01-31T03:15:47.253Z,4.20
2019-01-31T03:16:47.475Z,3.90
2019-01-31T03:17:47.693Z,4.10
2019-01-31T03:18:47.915Z,3.70
2019-01-31T03:19:48.139Z,3.60
2019-01-31T03:20:48.351Z,3.90
2019-01-31T03:21:48.578Z,3.90
2019-01-31T03:22:48.786Z,3.90
2019-01-31T03:23:49.007Z,4.00
2019-01-31T03:24:49.225Z,4.10
2019-01-31T03:25:49.444Z,4.20
2019-01-31T03:26:49.673Z,3.50
2019-01-31T03:27:49.890Z,4.10
2019-01-31T03:28:50.118Z,4.50
2019-01-31T03:29:50.329Z,3.80
2019-01-31T03:30:50.551Z,4.30
2019-01-31T03:31:50.775Z,4.00
2019-01-31T03:32:50.990Z,4.10
2019-01-31T03:33:51.197Z,3.90
2019-01-31T03:34:51.417Z,4.30
2019-01-31T03:35:51.637Z,4.10
2019-01-31T03:36:51.856Z,3.80
2019-01-31T03:37:52.076Z,3.80
2019-01-31T03:38:52.297Z,3.70
2019-01-31T03:39:52.514Z,3.90
2019-01-31T03:40:52.729Z,4.10
2019-01-31T03:41:52.949Z,4.10
2019-01-31T03:42:53.171Z,4.00
2019-01-31T03:43:53.389Z,4.00
2019-01-31T03:44:53.610Z,3.70
2019-01-31T03:45:53.837Z,4.10
2019-01-31T03:46:54.047Z,4.20
2019-01-31T03:47:54.271Z,4.20
2019-01-31T03:48:54.494Z,4.30
2019-01-31T03:49:54.730Z,4.00
2019-01-31T03:50:54.925Z,4.20
2019-01-31T03:51:55.141Z,4.30
2019-01-31T03:52:55.357Z,4.50
2019-01-31T03:53:55.576Z,4.70
2019-01-31T03:54:55.794Z,4.40
2019-01-31T03:55:56.009Z,4.50
2019-01-31T03:56:56.260Z,4.40
2019-01-31T03:57:56.446Z,4.60
2019-01-31T03:58:56.670Z,4.50
2019-01-31T03:59:56.880Z,4.60
2019-01-31T04:00:57.101Z,4.60
2019-01-31T04:01:57.321Z,4.50
2019-01-31T04:02:57.539Z,5.00
2019-01-31T04:03:57.758Z,4.50
2019-01-31T04:04:57.970Z,4.30
2019-01-31T04:05:58.187Z,4.90
2019-01-31T04:06:58.411Z,4.60
2019-01-31T04:07:58.626Z,5.10
2019-01-31T04:08:58.847Z,4.50
2019-01-31T04:09:59.067Z,4.10
2019-01-31T04:10:59.287Z,4.40
2019-01-31T04:11:59.503Z,4.40
2019-01-31T04:12:59.722Z,5.20
2019-01-31T04:13:59.971Z,5.20
2019-01-31T04:15:00.267Z,4.30
2019-01-31T04:16:00.404Z,5.00
2019-01-31T04:17:00.627Z,4.50
2019-01-31T04:18:00.840Z,5.10
2019-01-31T04:19:01.057Z,4.80
2019-01-31T04:20:01.282Z,4.50
2019-01-31T04:21:01.502Z,4.50
2019-01-31T04:22:01.717Z,4.60
2019-01-31T04:23:01.934Z,4.60
2019-01-31T04:24:02.157Z,4.80
2019-01-31T04:25:02.377Z,5.00
2019-01-31T04:26:02.591Z,4.50
2019-01-31T04:27:02.808Z,4.80
2019-01-31T04:28:03.029Z,5.10
2019-01-31T04:29:03.240Z,4.70
2019-01-31T04:30:03.461Z,4.30
2019-01-31T04:31:03.680Z,4.80
2019-01-31T04:32:03.899Z,4.70
2019-01-31T04:33:04.118Z,4.60
2019-01-31T04:34:04.337Z,4.80
2019-01-31T04:35:04.561Z,4.90
2019-01-31T04:36:04.773Z,4.60
2019-01-31T04:37:04.985Z,4.80
2019-01-31T04:38:05.203Z,5.20
2019-01-31T04:39:05.421Z,6.20
2019-01-31T04:40:05.642Z,4.90
2019-01-31T04:41:05.861Z,5.10
2019-01-31T04:42:06.085Z,5.10
2019-01-31T04:43:06.304Z,5.50
2019-01-31T04:44:06.522Z,4.70
2019-01-31T04:45:06.742Z,4.40
2019-01-31T04:46:06.973Z,4.80
2019-01-31T04:47:07.180Z,4.60
2019-01-31T04:48:07.448Z,4.90
2019-01-31T04:49:07.609Z,4.20
2019-01-31T04:50:07.816Z,4.60
2019-01-31T04:51:08.033Z,4.20
2019-01-31T04:52:08.256Z,4.90
2019-01-31T04:53:08.470Z,5.40
2019-01-31T04:54:08.689Z,4.70
2019-01-31T04:55:08.909Z,5.10
2019-01-31T04:56:09.132Z,4.70
2019-01-31T04:57:09.343Z,5.20
2019-01-31T04:58:09.570Z,5.40
2019-01-31T04:59:09.786Z,4.80
2019-01-31T05:00:10.005Z,5.20
2019-01-31T05:01:10.224Z,5.20
2019-01-31T05:02:10.451Z,5.60
2019-01-31T05:03:10.661Z,4.90
2019-01-31T05:04:10.873Z,4.90
2019-01-31T05:05:11.095Z,4.80
2019-01-31T05:06:11.315Z,4.20
2019-01-31T05:07:11.529Z,4.50
2019-01-31T05:08:11.748Z,5.10
2019-01-31T05:09:11.969Z,4.50
2019-01-31T05:10:12.185Z,4.80
2019-01-31T05:11:12.474Z,4.90
2019-01-31T05:12:12.624Z,5.00
2019-01-31T05:13:12.841Z,4.60
2019-01-31T05:14:13.065Z,5.40
2019-01-31T05:15:13.272Z,4.70
2019-01-31T05:16:13.488Z,5.10
2019-01-31T05:17:13.706Z,5.10
2019-01-31T05:18:13.927Z,4.80
2019-01-31T05:19:14.148Z,5.20
2019-01-31T05:20:14.365Z,4.40
2019-01-31T05:21:14.581Z,5.50
2019-01-31T05:22:14.803Z,5.20
2019-01-31T05:23:15.023Z,5.20
2019-01-31T05:24:15.236Z,5.10
2019-01-31T05:25:15.458Z,5.40
2019-01-31T05:26:15.668Z,5.40
2019-01-31T05:27:15.895Z,5.70
2019-01-31T05:28:16.107Z,5.50
2019-01-31T05:29:16.334Z,5.60
2019-01-31T05:30:16.553Z,5.80
2019-01-31T05:31:16.781Z,6.80
2019-01-31T05:32:17.008Z,5.30
2019-01-31T05:33:17.387Z,6.00
2019-01-31T05:34:17.406Z,5.10
2019-01-31T05:35:17.622Z,5.50
2019-01-31T05:36:17.946Z,5.80
2019-01-31T05:37:18.076Z,5.80
2019-01-31T05:38:18.275Z,5.70
2019-01-31T05:39:18.494Z,5.60
2019-01-31T05:40:18.705Z,5.80
2019-01-31T05:41:18.922Z,6.60
2019-01-31T05:42:19.136Z,6.40
2019-01-31T05:43:19.378Z,6.00
2019-01-31T05:44:19.576Z,6.70
2019-01-31T05:45:19.796Z,5.60
2019-01-31T05:46:20.012Z,5.70
2019-01-31T05:47:20.251Z,5.20
2019-01-31T05:48:20.467Z,6.30
2019-01-31T05:49:20.684Z,5.20
2019-01-31T05:50:20.903Z,5.50
2019-01-31T05:51:21.112Z,5.80
2019-01-31T05:52:21.323Z,6.00
2019-01-31T05:53:21.546Z,5.50
2019-01-31T05:54:21.750Z,5.40
2019-01-31T05:55:21.965Z,6.10
2019-01-31T05:56:22.193Z,6.50
2019-01-31T05:57:22.406Z,6.10
2019-01-31T05:58:22.629Z,6.10
2019-01-31T05:59:22.863Z,5.20
2019-01-31T06:00:23.094Z,6.20
2019-01-31T06:01:23.286Z,6.30
2019-01-31T06:02:23.503Z,5.50
2019-01-31T06:03:23.715Z,5.50
2019-01-31T06:04:23.932Z,5.90
2019-01-31T06:05:24.151Z,5.70
2019-01-31T06:06:24.372Z,5.80
2019-01-31T06:07:24.590Z,6.00
2019-01-31T06:08:24.812Z,6.20
2019-01-31T06:09:25.032Z,5.60
2019-01-31T06:10:25.247Z,6.20
2019-01-31T06:11:25.467Z,5.70
2019-01-31T06:12:25.679Z,5.60
2019-01-31T06:13:25.894Z,6.00
2019-01-31T06:14:26.114Z,6.30
2019-01-31T06:15:26.330Z,6.60
2019-01-31T06:16:26.547Z,6.40
2019-01-31T06:17:26.767Z,5.80
2019-01-31T06:18:26.988Z,5.50
2019-01-31T06:19:27.203Z,5.90
2019-01-31T06:20:27.418Z,5.40
2019-01-31T06:21:27.638Z,5.90
2019-01-31T06:22:27.858Z,5.50
2019-01-31T06:23:28.074Z,5.40
2019-01-31T06:24:28.292Z,7.00
2019-01-31T06:25:28.513Z,6.30
2019-01-31T06:26:28.842Z,7.50
2019-01-31T06:27:28.947Z,7.60
2019-01-31T06:28:29.172Z,8.10
2019-01-31T06:29:29.386Z,7.60
2019-01-31T06:30:29.608Z,6.70
2019-01-31T06:31:29.825Z,7.20
2019-01-31T06:32:30.038Z,7.40
2019-01-31T06:33:30.265Z,7.00
2019-01-31T06:34:30.490Z,6.60
2019-01-31T06:35:30.703Z,6.50
2019-01-31T06:36:30.919Z,6.80
2019-01-31T06:37:31.142Z,7.20
2019-01-31T06:38:31.353Z,7.50
2019-01-31T06:39:31.574Z,8.00
2019-01-31T06:40:31.791Z,8.00
2019-01-31T06:41:32.009Z,8.70
2019-01-31T06:42:32.231Z,7.60
2019-01-31T06:43:32.440Z,6.70
2019-01-31T06:44:32.654Z,6.50
2019-01-31T06:45:32.869Z,6.90
2019-01-31T06:46:33.085Z,7.50
2019-01-31T06:47:33.293Z,7.10
2019-01-31T06:48:34.066Z,7.80
2019-01-31T06:49:33.733Z,7.50
2019-01-31T06:50:33.957Z,7.60
2019-01-31T06:51:34.172Z,7.70
2019-01-31T06:52:34.388Z,7.90
2019-01-31T06:53:34.609Z,7.70
2019-01-31T06:54:34.817Z,7.50
2019-01-31T06:55:35.033Z,7.80
2019-01-31T06:56:35.257Z,7.60
2019-01-31T06:57:35.473Z,7.70
2019-01-31T06:58:35.706Z,7.60
2019-01-31T06:59:35.907Z,7.90
2019-01-31T07:00:36.123Z,8.00
2019-01-31T07:01:36.341Z,7.90
2019-01-31T07:02:36.558Z,8.20
2019-01-31T07:03:36.778Z,7.20
2019-01-31T07:04:36.997Z,7.30
2019-01-31T07:05:37.216Z,7.00
2019-01-31T07:06:37.436Z,7.00
2019-01-31T07:07:37.653Z,7.20
2019-01-31T07:08:37.870Z,6.90
2019-01-31T07:09:38.085Z,7.40
2019-01-31T07:10:38.396Z,7.60
2019-01-31T07:11:38.524Z,7.20
2019-01-31T07:12:38.741Z,8.10
2019-01-31T07:13:38.961Z,7.40
2019-01-31T07:14:39.180Z,7.80
2019-01-31T07:15:39.397Z,7.60
2019-01-31T07:16:39.621Z,8.00
2019-01-31T07:17:39.833Z,7.90
2019-01-31T07:18:40.051Z,6.80
2019-01-31T07:19:40.274Z,7.90
2019-01-31T07:20:40.486Z,7.70
2019-01-31T07:21:40.715Z,7.60
2019-01-31T07:22:40.937Z,9.70
2019-01-31T07:23:41.156Z,8.40
2019-01-31T07:24:41.364Z,7.20
2019-01-31T07:25:41.582Z,8.60
2019-01-31T07:26:41.808Z,7.90
2019-01-31T07:27:42.016Z,8.40
2019-01-31T07:28:42.234Z,8.80
2019-01-31T07:29:42.444Z,7.10
2019-01-31T07:30:42.671Z,7.20
2019-01-31T07:31:42.878Z,6.60
2019-01-31T07:32:43.096Z,6.70
2019-01-31T07:33:43.321Z,6.80
2019-01-31T07:34:43.541Z,6.60
2019-01-31T07:35:43.767Z,7.30
2019-01-31T07:36:43.978Z,7.40
2019-01-31T07:37:44.189Z,7.20
2019-01-31T07:38:44.416Z,7.50
2019-01-31T07:39:44.661Z,7.70
2019-01-31T07:40:44.854Z,7.60
2019-01-31T07:41:45.070Z,7.10
2019-01-31T07:42:45.290Z,8.80
2019-01-31T07:43:46.846Z,7.70
2019-01-31T07:44:45.727Z,7.20
2019-01-31T07:45:45.946Z,7.70
2019-01-31T07:46:46.162Z,7.40
2019-01-31T07:47:46.382Z,7.00
2019-01-31T07:48:46.601Z,8.00
2019-01-31T07:49:46.814Z,7.30
2019-01-31T07:50:47.033Z,7.80
2019-01-31T07:51:47.259Z,7.40
2019-01-31T07:52:47.476Z,7.60
2019-01-31T07:53:47.695Z,7.90
2019-01-31T07:54:47.911Z,7.40
2019-01-31T07:55:48.129Z,7.80
2019-01-31T07:56:48.347Z,7.90
2019-01-31T07:57:48.568Z,8.00
2019-01-31T07:58:48.785Z,8.00
2019-01-31T07:59:49.008Z,8.40
2019-01-31T08:00:49.224Z,8.70
2019-01-31T08:01:49.443Z,8.60
2019-01-31T08:02:49.669Z,8.50
2019-01-31T08:03:49.878Z,8.80
2019-01-31T08:04:50.098Z,8.20
2019-01-31T08:05:50.316Z,8.10
2019-01-31T08:06:50.536Z,8.90
2019-01-31T08:07:50.757Z,8.00
2019-01-31T08:08:50.974Z,8.40
2019-01-31T08:09:51.190Z,8.70
2019-01-31T08:10:51.413Z,8.50
2019-01-31T08:11:52.934Z,8.50
2019-01-31T08:12:51.852Z,8.40
2019-01-31T08:13:52.075Z,8.10
2019-01-31T08:14:52.292Z,8.60
2019-01-31T08:15:52.512Z,8.40
2019-01-31T08:16:52.742Z,8.60
2019-01-31T08:17:52.972Z,9.30
2019-01-31T08:18:53.173Z,7.90
2019-01-31T08:19:53.392Z,9.00
2019-01-31T08:20:53.612Z,8.20
2019-01-31T08:21:53.830Z,9.10
2019-01-31T08:22:54.051Z,9.10
2019-01-31T08:23:54.270Z,8.60
2019-01-31T08:24:54.487Z,9.20
2019-01-31T08:25:54.704Z,9.30
2019-01-31T08:26:56.005Z,8.80
2019-01-31T08:27:55.148Z,8.10
2019-01-31T08:28:55.371Z,8.30
2019-01-31T08:29:55.582Z,8.60
2019-01-31T08:30:55.801Z,8.90
2019-01-31T08:31:56.014Z,8.00
2019-01-31T08:32:56.230Z,7.60
2019-01-31T08:33:56.452Z,7.50
2019-01-31T08:34:56.669Z,7.50
2019-01-31T08:35:56.892Z,7.00
2019-01-31T08:36:57.109Z,8.10
2019-01-31T08:37:57.329Z,7.00
2019-01-31T08:38:57.548Z,6.30
2019-01-31T08:39:57.775Z,6.40
2019-01-31T08:40:57.984Z,6.10
2019-01-31T08:42:03.752Z,6.60
2019-01-31T08:42:58.438Z,6.10
2019-01-31T08:43:58.634Z,6.00
2019-01-31T08:44:58.860Z,6.20
2019-01-31T08:45:59.077Z,7.30
2019-01-31T08:46:59.297Z,8.40
2019-01-31T08:47:59.512Z,9.20
2019-01-31T08:48:59.734Z,9.70
2019-01-31T08:49:59.958Z,8.60
2019-01-31T08:51:00.173Z,8.50
2019-01-31T08:52:00.391Z,7.50
2019-01-31T08:53:00.611Z,7.50
2019-01-31T08:54:00.829Z,7.40
2019-01-31T08:55:01.050Z,7.10
2019-01-31T08:56:01.273Z,6.90
2019-01-31T08:57:01.490Z,7.10
2019-01-31T08:58:01.717Z,7.80
2019-01-31T08:59:01.930Z,6.80
2019-01-31T09:00:02.147Z,6.80
2019-01-31T09:01:02.378Z,6.70
2019-01-31T09:02:02.619Z,6.80
2019-01-31T09:03:02.838Z,6.80
2019-01-31T09:04:03.063Z,6.40
2019-01-31T09:05:03.278Z,6.70
2019-01-31T09:06:03.498Z,6.90
2019-01-31T09:07:03.721Z,6.10
2019-01-31T09:08:03.941Z,6.70
2019-01-31T09:09:04.158Z,5.90
2019-01-31T09:10:04.378Z,5.90
2019-01-31T09:11:04.593Z,5.40
2019-01-31T09:12:14.721Z,6.00
2019-01-31T09:13:05.034Z,5.50
2019-01-31T09:14:05.247Z,5.60
2019-01-31T09:15:05.464Z,5.10
2019-01-31T09:16:05.684Z,5.00
2019-01-31T09:17:05.904Z,5.00
2019-01-31T09:18:06.123Z,4.50
2019-01-31T09:19:06.348Z,4.90
2019-01-31T09:20:06.565Z,5.30
2019-01-31T09:21:06.785Z,4.60
2019-01-31T09:22:07.006Z,12.50
2019-01-31T09:23:07.218Z,10.40
2019-01-31T09:24:07.438Z,7.20
2019-01-31T09:25:07.657Z,6.30
2019-01-31T09:26:07.893Z,5.60
2019-01-31T09:27:08.102Z,6.20
2019-01-31T09:28:08.324Z,7.30
2019-01-31T09:29:08.543Z,6.70
2019-01-31T09:30:08.763Z,7.00
2019-01-31T09:31:08.981Z,5.10
2019-01-31T09:32:09.198Z,4.30
2019-01-31T09:33:09.417Z,4.20
2019-01-31T09:34:09.641Z,4.80
2019-01-31T09:35:09.863Z,5.00
2019-01-31T09:36:10.084Z,5.10
2019-01-31T09:37:10.304Z,5.30
2019-01-31T09:38:10.527Z,4.20
2019-01-31T09:39:10.751Z,3.90
2019-01-31T09:40:10.968Z,4.10
2019-01-31T09:41:11.189Z,4.00
2019-01-31T09:42:11.412Z,4.20
2019-01-31T09:43:11.629Z,4.10
2019-01-31T09:44:11.853Z,4.00
2019-01-31T09:45:12.075Z,3.70
2019-01-31T09:46:12.294Z,4.00
2019-01-31T09:47:12.514Z,3.50
2019-01-31T09:48:12.731Z,4.20
2019-01-31T09:49:12.951Z,4.10
2019-01-31T09:50:13.172Z,4.20
2019-01-31T09:51:13.395Z,4.10
2019-01-31T09:52:13.617Z,4.20
2019-01-31T09:53:13.836Z,4.30
2019-01-31T09:54:14.054Z,4.10
2019-01-31T09:55:14.276Z,4.20
2019-01-31T09:56:14.496Z,4.40
2019-01-31T09:57:14.725Z,3.80
2019-01-31T09:58:14.934Z,4.60
2019-01-31T09:59:15.154Z,3.80
2019-01-31T10:00:26.808Z,3.90
2019-01-31T10:01:15.599Z,3.60
2019-01-31T10:02:15.815Z,3.80
2019-01-31T10:03:16.036Z,3.90
2019-01-31T10:04:16.255Z,3.70
2019-01-31T10:05:16.477Z,4.00
2019-01-31T10:06:16.702Z,4.30
2019-01-31T10:07:16.919Z,4.10
2019-01-31T10:08:17.145Z,4.00
2019-01-31T10:09:17.361Z,3.60
2019-01-31T10:10:18.861Z,3.80
2019-01-31T10:11:17.872Z,3.90
2019-01-31T10:12:18.084Z,3.50
2019-01-31T10:13:18.254Z,4.10
2019-01-31T10:14:18.570Z,3.60
2019-01-31T10:15:18.681Z,3.60
2019-01-31T10:16:18.930Z,3.30
2019-01-31T10:17:19.187Z,3.70
2019-01-31T10:18:19.440Z,3.70
2019-01-31T10:19:19.571Z,3.40
2019-01-31T10:20:20.394Z,3.90
2019-01-31T10:21:20.029Z,3.60
2019-01-31T10:22:20.259Z,3.10
2019-01-31T10:23:20.463Z,3.60
2019-01-31T10:24:20.689Z,3.70
2019-01-31T10:25:20.943Z,3.60
2019-01-31T10:26:21.124Z,3.20
2019-01-31T10:27:21.341Z,3.90
2019-01-31T10:28:21.562Z,4.00
2019-01-31T10:29:21.788Z,3.40
2019-01-31T10:30:21.998Z,3.50
2019-01-31T10:31:22.217Z,3.60
2019-01-31T10:32:22.439Z,3.40
2019-01-31T10:33:22.644Z,2.90
2019-01-31T10:34:22.872Z,3.30
2019-01-31T10:35:23.090Z,3.30
2019-01-31T10:36:23.313Z,3.50
2019-01-31T10:37:23.534Z,3.10
2019-01-31T10:38:23.752Z,3.50
2019-01-31T10:39:23.975Z,3.60
2019-01-31T10:40:24.193Z,3.20
2019-01-31T10:41:24.419Z,2.80
2019-01-31T10:42:24.640Z,3.10
2019-01-31T10:43:24.866Z,3.30
2019-01-31T10:44:25.085Z,3.00
2019-01-31T10:45:25.310Z,3.30
2019-01-31T10:46:25.532Z,3.30
2019-01-31T10:47:25.752Z,2.80
2019-01-31T10:48:25.973Z,2.90
2019-01-31T10:49:26.197Z,3.10
2019-01-31T10:50:26.419Z,3.00
2019-01-31T10:51:26.643Z,2.90
2019-01-31T10:52:26.863Z,3.50
2019-01-31T10:53:27.082Z,3.20
2019-01-31T10:54:27.303Z,3.40
2019-01-31T10:55:27.529Z,3.20
2019-01-31T10:56:27.756Z,3.40
2019-01-31T10:57:27.976Z,3.20
2019-01-31T10:58:28.189Z,3.60
2019-01-31T10:59:28.411Z,6.00
2019-01-31T11:00:28.632Z,3.80
2019-01-31T11:01:28.851Z,3.50
2019-01-31T11:02:29.076Z,3.60
2019-01-31T11:03:29.294Z,3.30
2019-01-31T11:04:29.512Z,3.60
2019-01-31T11:05:29.732Z,4.00
2019-01-31T11:06:29.946Z,3.30
2019-01-31T11:07:30.168Z,3.20
2019-01-31T11:08:30.387Z,3.30
2019-01-31T11:09:30.607Z,3.40
2019-01-31T11:10:30.865Z,4.20
2019-01-31T11:11:31.101Z,3.70
2019-01-31T11:12:31.322Z,3.40
2019-01-31T11:13:31.541Z,3.80
2019-01-31T11:14:31.766Z,4.60
2019-01-31T11:15:31.992Z,4.00
2019-01-31T11:16:32.218Z,3.50
2019-01-31T11:17:32.438Z,3.10
2019-01-31T11:18:32.661Z,3.00
2019-01-31T11:19:32.886Z,4.20
2019-01-31T11:20:33.114Z,2.90
2019-01-31T11:21:33.316Z,3.10
2019-01-31T11:22:33.542Z,2.90
2019-01-31T11:23:33.766Z,3.40
2019-01-31T11:24:33.989Z,2.90
2019-01-31T11:25:34.209Z,3.00
2019-01-31T11:26:34.426Z,2.80
2019-01-31T11:27:34.651Z,3.70
2019-01-31T11:28:34.892Z,4.90
2019-01-31T11:29:35.081Z,2.80
2019-01-31T11:30:35.303Z,2.60
2019-01-31T11:31:35.529Z,3.00
2019-01-31T11:32:38.539Z,4.00
2019-01-31T11:33:35.967Z,3.80
2019-01-31T11:34:36.189Z,3.30
2019-01-31T11:35:36.412Z,2.40
2019-01-31T11:36:36.658Z,2.30
2019-01-31T11:37:36.859Z,3.00
2019-01-31T11:38:37.065Z,2.50
2019-01-31T11:39:37.286Z,2.20
2019-01-31T11:40:37.496Z,2.50
2019-01-31T11:41:37.720Z,2.00
2019-01-31T11:42:37.937Z,2.40
2019-01-31T11:43:38.155Z,2.60
2019-01-31T11:44:38.380Z,2.70
2019-01-31T11:45:38.595Z,2.60
2019-01-31T11:46:38.818Z,2.60
2019-01-31T11:47:39.038Z,2.50
2019-01-31T11:48:39.253Z,8.70
2019-01-31T11:49:39.488Z,38.50
2019-01-31T11:50:39.696Z,6.30
2019-01-31T11:51:39.924Z,5.90
2019-01-31T11:52:40.147Z,3.80
2019-01-31T11:53:40.369Z,2.80
2019-01-31T11:54:40.599Z,2.40
2019-01-31T11:55:40.821Z,5.10
2019-01-31T11:56:41.035Z,6.40
2019-01-31T11:57:41.260Z,4.10
2019-01-31T11:58:41.480Z,3.00
2019-01-31T11:59:41.697Z,10.70
2019-01-31T12:00:41.923Z,4.50
2019-01-31T12:01:42.151Z,2.90
2019-01-31T12:02:42.376Z,4.30
2019-01-31T12:03:42.601Z,10.60
2019-01-31T12:04:42.820Z,9.20
2019-01-31T12:05:43.043Z,4.60
2019-01-31T12:06:43.267Z,3.80
2019-01-31T12:07:43.492Z,4.10
2019-01-31T12:08:43.949Z,3.00
2019-01-31T12:09:43.929Z,3.50
2019-01-31T12:10:44.222Z,4.40
2019-01-31T12:11:44.385Z,3.00
2019-01-31T12:12:44.608Z,2.80
2019-01-31T12:13:44.834Z,4.30
2019-01-31T12:14:45.095Z,3.70
2019-01-31T12:15:45.273Z,3.40
2019-01-31T12:16:45.502Z,3.90
2019-01-31T12:17:45.700Z,4.90
2019-01-31T12:18:45.937Z,5.10
2019-01-31T12:19:46.127Z,3.20
2019-01-31T12:20:46.347Z,3.80
2019-01-31T12:21:46.561Z,3.10
2019-01-31T12:22:46.788Z,3.10
2019-01-31T12:23:47.012Z,3.60
2019-01-31T12:24:47.234Z,3.90
2019-01-31T12:25:47.460Z,3.10
2019-01-31T12:26:47.680Z,2.40
2019-01-31T12:27:47.906Z,2.90
2019-01-31T12:28:50.877Z,2.60
2019-01-31T12:29:48.352Z,3.40
2019-01-31T12:30:48.576Z,4.50
2019-01-31T12:31:48.801Z,4.90
2019-01-31T12:32:49.025Z,4.40
2019-01-31T12:33:49.247Z,4.00
2019-01-31T12:34:49.472Z,3.60
2019-01-31T12:35:49.694Z,3.80
2019-01-31T12:36:49.923Z,5.50
2019-01-31T12:37:50.145Z,4.90
2019-01-31T12:38:50.377Z,3.60
2019-01-31T12:39:52.213Z,3.00
2019-01-31T12:40:50.818Z,2.90
2019-01-31T12:41:51.044Z,2.20
2019-01-31T12:42:51.264Z,2.50
2019-01-31T12:43:51.488Z,2.40
2019-01-31T12:44:51.709Z,2.40
2019-01-31T12:45:51.931Z,2.40
2019-01-31T12:46:52.151Z,2.50
2019-01-31T12:47:52.376Z,2.20
2019-01-31T12:48:52.597Z,2.80
2019-01-31T12:49:52.842Z,2.30
2019-01-31T12:50:53.043Z,2.40
2019-01-31T12:51:53.269Z,5.70
2019-01-31T12:52:53.487Z,3.20
2019-01-31T12:53:53.709Z,2.50
2019-01-31T12:54:54.007Z,3.50
2019-01-31T12:55:54.161Z,2.80
2019-01-31T12:56:54.384Z,4.70
2019-01-31T12:57:54.612Z,2.90
2019-01-31T12:58:54.832Z,4.50
2019-01-31T12:59:55.056Z,2.80
2019-01-31T13:00:55.278Z,2.40
2019-01-31T13:01:55.502Z,2.00
2019-01-31T13:02:55.715Z,2.20
2019-01-31T13:03:55.938Z,1.80
2019-01-31T13:04:56.163Z,2.00
2019-01-31T13:05:56.381Z,2.30
2019-01-31T13:06:56.602Z,2.30
2019-01-31T13:07:56.832Z,2.40
2019-01-31T13:08:57.059Z,2.50
2019-01-31T13:09:57.279Z,3.10
2019-01-31T13:10:57.498Z,3.00
2019-01-31T13:11:57.724Z,2.70
2019-01-31T13:12:57.941Z,2.70
2019-01-31T13:13:58.163Z,2.60
2019-01-31T13:14:58.396Z,2.40
2019-01-31T13:15:58.636Z,2.10
2019-01-31T13:16:58.827Z,2.70
2019-01-31T13:17:59.052Z,2.40
2019-01-31T13:18:59.270Z,2.30
2019-01-31T13:19:59.496Z,2.80
2019-01-31T13:20:59.717Z,2.60